sensor_id;sensor_type;location;lat;lon;timestamp;P1;durP1;ratioP1;P2;durP2;ratioP2
23716;SDS011;22094;52.130;5.598;2022-09-09T00:09:31;7.90;;;3.10;;
23716;SDS011;22094;52.130;5.598;2022-09-09T00:12:11;7.43;;;3.33;;
23716;SDS011;22094;52.130;5.598;2022-09-09T00:15:14;4.63;;;2.90;;
23716;SDS011;22094;52.130;5.598;2022-09-09T00:17:38;4.57;;;2.88;;
23716;SDS011;22094;52.130;5.598;2022-09-09T00:20:12;9.13;;;3.30;;
23716;SDS011;22094;52.130;5.598;2022-09-09T00:22:39;3.92;;;3.30;;
23716;SDS011;22094;52.130;5.598;2022-09-09T00:25:11;5.50;;;3.90;;
23716;SDS011;22094;52.130;5.598;2022-09-09T00:27:47;5.18;;;3.78;;
23716;SDS011;22094;52.130;5.598;2022-09-09T00:30:18;11.02;;;3.92;;
23716;SDS011;22094;52.130;5.598;2022-09-09T00:33:33;6.85;;;4.78;;
23716;SDS011;22094;52.130;5.598;2022-09-09T00:35:40;7.30;;;5.20;;
23716;SDS011;22094;52.130;5.598;2022-09-09T00:38:10;6.43;;;5.78;;
23716;SDS011;22094;52.130;5.598;2022-09-09T00:40:48;8.02;;;6.40;;
23716;SDS011;22094;52.130;5.598;2022-09-09T00:46:00;8.25;;;6.78;;
23716;SDS011;22094;52.130;5.598;2022-09-09T00:51:42;11.02;;;7.50;;
23716;SDS011;22094;52.130;5.598;2022-09-09T00:54:21;10.23;;;7.07;;
23716;SDS011;22094;52.130;5.598;2022-09-09T00:56:53;9.75;;;7.32;;
23716;SDS011;22094;52.130;5.598;2022-09-09T01:02:13;11.93;;;9.13;;
23716;SDS011;22094;52.130;5.598;2022-09-09T01:04:52;14.15;;;9.05;;
23716;SDS011;22094;52.130;5.598;2022-09-09T01:07:19;12.45;;;8.73;;
23716;SDS011;22094;52.130;5.598;2022-09-09T01:09:52;15.82;;;9.55;;
23716;SDS011;22094;52.130;5.598;2022-09-09T01:12:36;13.80;;;9.68;;
23716;SDS011;22094;52.130;5.598;2022-09-09T01:18:00;12.38;;;9.65;;
23716;SDS011;22094;52.130;5.598;2022-09-09T01:20:37;15.82;;;9.88;;
23716;SDS011;22094;52.130;5.598;2022-09-09T01:23:26;15.70;;;9.35;;
23716;SDS011;22094;52.130;5.598;2022-09-09T01:28:45;16.02;;;9.88;;
23716;SDS011;22094;52.130;5.598;2022-09-09T01:31:39;14.07;;;9.43;;
23716;SDS011;22094;52.130;5.598;2022-09-09T01:34:09;14.48;;;9.57;;
23716;SDS011;22094;52.130;5.598;2022-09-09T01:36:43;16.98;;;10.02;;
23716;SDS011;22094;52.130;5.598;2022-09-09T01:39:25;16.02;;;10.30;;
23716;SDS011;22094;52.130;5.598;2022-09-09T01:41:51;14.45;;;9.52;;
23716;SDS011;22094;52.130;5.598;2022-09-09T01:44:18;20.10;;;10.57;;
23716;SDS011;22094;52.130;5.598;2022-09-09T01:46:45;13.10;;;9.98;;
23716;SDS011;22094;52.130;5.598;2022-09-09T01:49:10;18.33;;;10.52;;
23716;SDS011;22094;52.130;5.598;2022-09-09T01:51:36;17.90;;;10.85;;
23716;SDS011;22094;52.130;5.598;2022-09-09T01:54:04;17.70;;;10.63;;
23716;SDS011;22094;52.130;5.598;2022-09-09T01:56:35;14.93;;;10.38;;
23716;SDS011;22094;52.130;5.598;2022-09-09T01:59:28;17.80;;;11.00;;
23716;SDS011;22094;52.130;5.598;2022-09-09T02:02:26;17.65;;;10.70;;
23716;SDS011;22094;52.130;5.598;2022-09-09T02:05:03;16.50;;;10.60;;
23716;SDS011;22094;52.130;5.598;2022-09-09T02:07:42;19.42;;;11.73;;
23716;SDS011;22094;52.130;5.598;2022-09-09T02:12:40;18.73;;;12.52;;
23716;SDS011;22094;52.130;5.598;2022-09-09T02:15:16;20.90;;;12.68;;
23716;SDS011;22094;52.130;5.598;2022-09-09T02:17:51;21.50;;;12.40;;
23716;SDS011;22094;52.130;5.598;2022-09-09T02:20:19;17.67;;;11.90;;
23716;SDS011;22094;52.130;5.598;2022-09-09T02:22:46;23.60;;;12.98;;
23716;SDS011;22094;52.130;5.598;2022-09-09T02:25:15;28.27;;;13.13;;
23716;SDS011;22094;52.130;5.598;2022-09-09T02:27:45;20.95;;;13.30;;
23716;SDS011;22094;52.130;5.598;2022-09-09T02:30:12;22.17;;;13.98;;
23716;SDS011;22094;52.130;5.598;2022-09-09T02:32:38;21.15;;;13.52;;
23716;SDS011;22094;52.130;5.598;2022-09-09T02:35:08;20.95;;;12.68;;
23716;SDS011;22094;52.130;5.598;2022-09-09T02:37:40;18.05;;;12.43;;
23716;SDS011;22094;52.130;5.598;2022-09-09T02:40:08;20.75;;;13.35;;
23716;SDS011;22094;52.130;5.598;2022-09-09T02:42:42;18.98;;;12.40;;
23716;SDS011;22094;52.130;5.598;2022-09-09T02:45:09;21.10;;;12.38;;
23716;SDS011;22094;52.130;5.598;2022-09-09T02:47:43;20.23;;;12.75;;
23716;SDS011;22094;52.130;5.598;2022-09-09T02:50:23;22.10;;;12.68;;
23716;SDS011;22094;52.130;5.598;2022-09-09T02:53:17;21.55;;;12.88;;
23716;SDS011;22094;52.130;5.598;2022-09-09T02:58:14;23.10;;;13.35;;
23716;SDS011;22094;52.130;5.598;2022-09-09T03:00:42;16.88;;;11.25;;
23716;SDS011;22094;52.130;5.598;2022-09-09T03:03:10;20.98;;;11.93;;
23716;SDS011;22094;52.130;5.598;2022-09-09T03:05:36;20.17;;;11.63;;
23716;SDS011;22094;52.130;5.598;2022-09-09T03:08:02;19.98;;;12.55;;
23716;SDS011;22094;52.130;5.598;2022-09-09T03:10:28;21.65;;;12.60;;
23716;SDS011;22094;52.130;5.598;2022-09-09T03:12:54;22.42;;;13.07;;
23716;SDS011;22094;52.130;5.598;2022-09-09T03:15:20;22.38;;;12.90;;
23716;SDS011;22094;52.130;5.598;2022-09-09T03:17:46;26.02;;;12.73;;
23716;SDS011;22094;52.130;5.598;2022-09-09T03:20:12;20.65;;;13.50;;
23716;SDS011;22094;52.130;5.598;2022-09-09T03:22:38;25.27;;;14.10;;
23716;SDS011;22094;52.130;5.598;2022-09-09T03:25:03;28.70;;;13.80;;
23716;SDS011;22094;52.130;5.598;2022-09-09T03:27:30;21.70;;;13.15;;
23716;SDS011;22094;52.130;5.598;2022-09-09T03:29:56;22.35;;;13.82;;
23716;SDS011;22094;52.130;5.598;2022-09-09T03:32:22;24.92;;;13.50;;
23716;SDS011;22094;52.130;5.598;2022-09-09T03:34:50;20.40;;;12.30;;
23716;SDS011;22094;52.130;5.598;2022-09-09T03:37:17;21.52;;;13.20;;
23716;SDS011;22094;52.130;5.598;2022-09-09T03:39:43;24.02;;;12.93;;
23716;SDS011;22094;52.130;5.598;2022-09-09T03:42:08;19.60;;;12.93;;
23716;SDS011;22094;52.130;5.598;2022-09-09T03:44:39;21.60;;;12.60;;
23716;SDS011;22094;52.130;5.598;2022-09-09T03:47:04;25.42;;;13.48;;
23716;SDS011;22094;52.130;5.598;2022-09-09T03:49:34;23.50;;;14.50;;
23716;SDS011;22094;52.130;5.598;2022-09-09T03:51:59;23.52;;;13.38;;
23716;SDS011;22094;52.130;5.598;2022-09-09T03:54:25;21.92;;;13.30;;
23716;SDS011;22094;52.130;5.598;2022-09-09T03:56:52;24.83;;;13.95;;
23716;SDS011;22094;52.130;5.598;2022-09-09T03:59:23;29.35;;;15.63;;
23716;SDS011;22094;52.130;5.598;2022-09-09T04:01:48;24.63;;;14.65;;
23716;SDS011;22094;52.130;5.598;2022-09-09T04:04:14;29.38;;;14.77;;
23716;SDS011;22094;52.130;5.598;2022-09-09T04:06:39;27.85;;;15.23;;
23716;SDS011;22094;52.130;5.598;2022-09-09T04:09:05;27.42;;;14.45;;
23716;SDS011;22094;52.130;5.598;2022-09-09T04:11:30;26.50;;;14.73;;
23716;SDS011;22094;52.130;5.598;2022-09-09T04:13:56;21.67;;;14.20;;
23716;SDS011;22094;52.130;5.598;2022-09-09T04:16:24;28.48;;;15.50;;
23716;SDS011;22094;52.130;5.598;2022-09-09T04:18:49;23.77;;;14.57;;
23716;SDS011;22094;52.130;5.598;2022-09-09T04:21:15;22.27;;;14.05;;
23716;SDS011;22094;52.130;5.598;2022-09-09T04:23:41;24.15;;;15.25;;
23716;SDS011;22094;52.130;5.598;2022-09-09T04:26:18;23.75;;;14.95;;
23716;SDS011;22094;52.130;5.598;2022-09-09T04:28:43;26.13;;;15.63;;
23716;SDS011;22094;52.130;5.598;2022-09-09T04:31:10;28.05;;;15.57;;
23716;SDS011;22094;52.130;5.598;2022-09-09T04:33:40;25.30;;;15.85;;
23716;SDS011;22094;52.130;5.598;2022-09-09T04:36:06;24.83;;;15.35;;
23716;SDS011;22094;52.130;5.598;2022-09-09T04:38:32;25.35;;;15.27;;
23716;SDS011;22094;52.130;5.598;2022-09-09T04:40:58;23.75;;;14.57;;
23716;SDS011;22094;52.130;5.598;2022-09-09T04:43:23;23.25;;;15.10;;
23716;SDS011;22094;52.130;5.598;2022-09-09T04:45:50;23.27;;;14.15;;
23716;SDS011;22094;52.130;5.598;2022-09-09T04:48:17;24.25;;;14.45;;
23716;SDS011;22094;52.130;5.598;2022-09-09T04:50:43;23.38;;;14.15;;
23716;SDS011;22094;52.130;5.598;2022-09-09T04:53:08;21.92;;;13.77;;
23716;SDS011;22094;52.130;5.598;2022-09-09T04:55:34;23.90;;;13.48;;
23716;SDS011;22094;52.130;5.598;2022-09-09T04:58:06;24.73;;;13.90;;
23716;SDS011;22094;52.130;5.598;2022-09-09T05:00:36;21.92;;;12.73;;
23716;SDS011;22094;52.130;5.598;2022-09-09T05:03:03;22.05;;;12.90;;
23716;SDS011;22094;52.130;5.598;2022-09-09T05:05:30;24.35;;;12.43;;
23716;SDS011;22094;52.130;5.598;2022-09-09T05:08:00;21.52;;;12.98;;
23716;SDS011;22094;52.130;5.598;2022-09-09T05:10:27;18.92;;;12.18;;
23716;SDS011;22094;52.130;5.598;2022-09-09T05:12:53;17.45;;;11.68;;
23716;SDS011;22094;52.130;5.598;2022-09-09T05:15:19;23.77;;;12.20;;
23716;SDS011;22094;52.130;5.598;2022-09-09T05:17:46;26.05;;;12.07;;
23716;SDS011;22094;52.130;5.598;2022-09-09T05:20:11;19.23;;;11.98;;
23716;SDS011;22094;52.130;5.598;2022-09-09T05:22:37;30.05;;;12.75;;
23716;SDS011;22094;52.130;5.598;2022-09-09T05:25:02;21.65;;;12.32;;
23716;SDS011;22094;52.130;5.598;2022-09-09T05:27:28;23.80;;;13.15;;
23716;SDS011;22094;52.130;5.598;2022-09-09T05:29:56;22.23;;;11.95;;
23716;SDS011;22094;52.130;5.598;2022-09-09T05:32:22;19.52;;;11.88;;
23716;SDS011;22094;52.130;5.598;2022-09-09T05:34:48;20.60;;;11.55;;
23716;SDS011;22094;52.130;5.598;2022-09-09T05:37:13;22.95;;;12.32;;
23716;SDS011;22094;52.130;5.598;2022-09-09T05:39:39;20.63;;;11.77;;
23716;SDS011;22094;52.130;5.598;2022-09-09T05:42:04;24.05;;;11.82;;
23716;SDS011;22094;52.130;5.598;2022-09-09T05:44:30;22.30;;;11.88;;
23716;SDS011;22094;52.130;5.598;2022-09-09T05:46:56;17.42;;;10.60;;
23716;SDS011;22094;52.130;5.598;2022-09-09T05:49:23;20.42;;;11.25;;
23716;SDS011;22094;52.130;5.598;2022-09-09T05:51:51;19.73;;;11.38;;
23716;SDS011;22094;52.130;5.598;2022-09-09T05:54:17;19.35;;;10.85;;
23716;SDS011;22094;52.130;5.598;2022-09-09T05:56:43;12.27;;;8.98;;
23716;SDS011;22094;52.130;5.598;2022-09-09T05:59:09;13.63;;;8.93;;
23716;SDS011;22094;52.130;5.598;2022-09-09T06:01:35;17.15;;;7.88;;
23716;SDS011;22094;52.130;5.598;2022-09-09T06:04:05;18.73;;;8.88;;
23716;SDS011;22094;52.130;5.598;2022-09-09T06:06:33;15.38;;;7.45;;
23716;SDS011;22094;52.130;5.598;2022-09-09T06:09:04;18.33;;;7.93;;
23716;SDS011;22094;52.130;5.598;2022-09-09T06:11:38;14.85;;;7.07;;
23716;SDS011;22094;52.130;5.598;2022-09-09T06:14:05;13.18;;;7.53;;
23716;SDS011;22094;52.130;5.598;2022-09-09T06:16:31;14.85;;;7.03;;
23716;SDS011;22094;52.130;5.598;2022-09-09T06:18:58;14.73;;;7.07;;
23716;SDS011;22094;52.130;5.598;2022-09-09T06:21:28;12.50;;;6.88;;
23716;SDS011;22094;52.130;5.598;2022-09-09T06:23:55;17.05;;;7.00;;
23716;SDS011;22094;52.130;5.598;2022-09-09T06:26:25;14.75;;;7.22;;
23716;SDS011;22094;52.130;5.598;2022-09-09T06:28:53;14.60;;;7.35;;
23716;SDS011;22094;52.130;5.598;2022-09-09T06:31:20;14.27;;;7.20;;
23716;SDS011;22094;52.130;5.598;2022-09-09T06:33:47;10.95;;;6.57;;
23716;SDS011;22094;52.130;5.598;2022-09-09T06:38:41;14.27;;;6.30;;
23716;SDS011;22094;52.130;5.598;2022-09-09T06:41:08;11.75;;;6.50;;
23716;SDS011;22094;52.130;5.598;2022-09-09T06:43:34;12.00;;;6.07;;
23716;SDS011;22094;52.130;5.598;2022-09-09T06:46:04;14.75;;;6.55;;
23716;SDS011;22094;52.130;5.598;2022-09-09T06:48:40;10.40;;;5.97;;
23716;SDS011;22094;52.130;5.598;2022-09-09T06:51:08;12.32;;;6.40;;
23716;SDS011;22094;52.130;5.598;2022-09-09T06:53:39;12.73;;;6.20;;
23716;SDS011;22094;52.130;5.598;2022-09-09T06:58:35;14.57;;;5.50;;
23716;SDS011;22094;52.130;5.598;2022-09-09T07:01:04;12.55;;;5.80;;
23716;SDS011;22094;52.130;5.598;2022-09-09T07:03:34;15.57;;;5.10;;
23716;SDS011;22094;52.130;5.598;2022-09-09T07:06:00;13.52;;;4.82;;
23716;SDS011;22094;52.130;5.598;2022-09-09T07:08:26;12.85;;;5.25;;
23716;SDS011;22094;52.130;5.598;2022-09-09T07:10:53;7.57;;;4.68;;
23716;SDS011;22094;52.130;5.598;2022-09-09T07:13:23;10.05;;;4.70;;
23716;SDS011;22094;52.130;5.598;2022-09-09T07:15:50;9.30;;;4.38;;
23716;SDS011;22094;52.130;5.598;2022-09-09T07:18:16;9.05;;;4.18;;
23716;SDS011;22094;52.130;5.598;2022-09-09T07:20:42;8.10;;;3.92;;
23716;SDS011;22094;52.130;5.598;2022-09-09T07:23:07;10.95;;;3.90;;
23716;SDS011;22094;52.130;5.598;2022-09-09T07:25:33;7.18;;;3.70;;
23716;SDS011;22094;52.130;5.598;2022-09-09T07:27:59;8.75;;;3.35;;
23716;SDS011;22094;52.130;5.598;2022-09-09T07:30:25;7.05;;;3.17;;
23716;SDS011;22094;52.130;5.598;2022-09-09T07:32:51;8.80;;;3.47;;
23716;SDS011;22094;52.130;5.598;2022-09-09T07:35:17;8.25;;;3.13;;
23716;SDS011;22094;52.130;5.598;2022-09-09T07:37:43;10.35;;;3.30;;
23716;SDS011;22094;52.130;5.598;2022-09-09T07:40:10;11.38;;;3.72;;
23716;SDS011;22094;52.130;5.598;2022-09-09T07:42:36;12.25;;;3.28;;
23716;SDS011;22094;52.130;5.598;2022-09-09T07:45:02;10.23;;;3.40;;
23716;SDS011;22094;52.130;5.598;2022-09-09T07:47:29;10.55;;;3.35;;
23716;SDS011;22094;52.130;5.598;2022-09-09T07:49:55;7.35;;;3.10;;
23716;SDS011;22094;52.130;5.598;2022-09-09T07:52:21;7.20;;;3.03;;
23716;SDS011;22094;52.130;5.598;2022-09-09T07:54:47;11.77;;;3.30;;
23716;SDS011;22094;52.130;5.598;2022-09-09T07:57:13;11.40;;;3.67;;
23716;SDS011;22094;52.130;5.598;2022-09-09T07:59:40;11.13;;;3.20;;
23716;SDS011;22094;52.130;5.598;2022-09-09T08:02:06;12.30;;;3.25;;
23716;SDS011;22094;52.130;5.598;2022-09-09T08:04:32;8.45;;;3.55;;
23716;SDS011;22094;52.130;5.598;2022-09-09T08:06:58;9.63;;;3.00;;
23716;SDS011;22094;52.130;5.598;2022-09-09T08:09:26;6.60;;;2.83;;
23716;SDS011;22094;52.130;5.598;2022-09-09T08:11:54;10.52;;;3.25;;
23716;SDS011;22094;52.130;5.598;2022-09-09T08:14:21;12.18;;;3.53;;
23716;SDS011;22094;52.130;5.598;2022-09-09T08:16:48;9.55;;;3.25;;
23716;SDS011;22094;52.130;5.598;2022-09-09T08:19:14;7.38;;;3.05;;
23716;SDS011;22094;52.130;5.598;2022-09-09T08:21:40;9.45;;;2.67;;
23716;SDS011;22094;52.130;5.598;2022-09-09T08:24:07;9.55;;;2.90;;
23716;SDS011;22094;52.130;5.598;2022-09-09T08:26:36;8.68;;;2.80;;
23716;SDS011;22094;52.130;5.598;2022-09-09T08:29:07;8.75;;;2.83;;
23716;SDS011;22094;52.130;5.598;2022-09-09T08:31:39;11.63;;;3.30;;
23716;SDS011;22094;52.130;5.598;2022-09-09T08:34:08;4.93;;;2.38;;
23716;SDS011;22094;52.130;5.598;2022-09-09T08:36:35;6.95;;;2.67;;
23716;SDS011;22094;52.130;5.598;2022-09-09T08:39:03;11.63;;;2.75;;
23716;SDS011;22094;52.130;5.598;2022-09-09T08:44:36;5.75;;;2.35;;
23716;SDS011;22094;52.130;5.598;2022-09-09T08:47:35;10.73;;;3.10;;
23716;SDS011;22094;52.130;5.598;2022-09-09T08:50:21;8.45;;;2.60;;
23716;SDS011;22094;52.130;5.598;2022-09-09T08:58:02;7.22;;;2.42;;
23716;SDS011;22094;52.130;5.598;2022-09-09T09:00:47;5.45;;;2.35;;
23716;SDS011;22094;52.130;5.598;2022-09-09T09:08:43;8.63;;;2.85;;
23716;SDS011;22094;52.130;5.598;2022-09-09T09:11:25;7.07;;;2.42;;
23716;SDS011;22094;52.130;5.598;2022-09-09T09:13:53;9.82;;;2.88;;
23716;SDS011;22094;52.130;5.598;2022-09-09T09:18:54;6.88;;;2.67;;
23716;SDS011;22094;52.130;5.598;2022-09-09T09:23:58;7.85;;;2.55;;
23716;SDS011;22094;52.130;5.598;2022-09-09T09:26:33;9.85;;;3.08;;
23716;SDS011;22094;52.130;5.598;2022-09-09T09:29:00;9.52;;;2.80;;
23716;SDS011;22094;52.130;5.598;2022-09-09T09:31:37;6.32;;;2.55;;
23716;SDS011;22094;52.130;5.598;2022-09-09T09:34:03;9.02;;;2.78;;
23716;SDS011;22094;52.130;5.598;2022-09-09T09:36:38;8.30;;;2.67;;
23716;SDS011;22094;52.130;5.598;2022-09-09T09:39:07;9.32;;;3.00;;
23716;SDS011;22094;52.130;5.598;2022-09-09T09:41:35;11.85;;;3.17;;
23716;SDS011;22094;52.130;5.598;2022-09-09T09:44:04;12.25;;;2.92;;
23716;SDS011;22094;52.130;5.598;2022-09-09T09:46:31;6.32;;;2.30;;
23716;SDS011;22094;52.130;5.598;2022-09-09T09:48:57;7.25;;;2.70;;
23716;SDS011;22094;52.130;5.598;2022-09-09T09:51:24;7.65;;;2.33;;
23716;SDS011;22094;52.130;5.598;2022-09-09T09:53:51;6.32;;;2.65;;
23716;SDS011;22094;52.130;5.598;2022-09-09T09:56:25;8.80;;;2.88;;
23716;SDS011;22094;52.130;5.598;2022-09-09T09:58:53;11.65;;;2.45;;
23716;SDS011;22094;52.130;5.598;2022-09-09T10:01:20;5.80;;;2.38;;
23716;SDS011;22094;52.130;5.598;2022-09-09T10:04:00;7.57;;;2.70;;
23716;SDS011;22094;52.130;5.598;2022-09-09T10:06:48;10.05;;;2.20;;
23716;SDS011;22094;52.130;5.598;2022-09-09T10:09:27;9.00;;;3.00;;
23716;SDS011;22094;52.130;5.598;2022-09-09T10:12:19;8.30;;;2.50;;
23716;SDS011;22094;52.130;5.598;2022-09-09T10:20:54;7.03;;;2.55;;
23716;SDS011;22094;52.130;5.598;2022-09-09T10:29:30;11.43;;;2.70;;
23716;SDS011;22094;52.130;5.598;2022-09-09T10:38:02;10.73;;;2.97;;
23716;SDS011;22094;52.130;5.598;2022-09-09T10:54:21;9.98;;;2.95;;
23716;SDS011;22094;52.130;5.598;2022-09-09T10:59:54;9.50;;;3.38;;
23716;SDS011;22094;52.130;5.598;2022-09-09T11:04:50;8.65;;;4.13;;
23716;SDS011;22094;52.130;5.598;2022-09-09T11:07:25;11.90;;;4.15;;
23716;SDS011;22094;52.130;5.598;2022-09-09T11:09:58;8.98;;;3.80;;
23716;SDS011;22094;52.130;5.598;2022-09-09T11:12:27;10.85;;;4.03;;
23716;SDS011;22094;52.130;5.598;2022-09-09T11:14:57;9.02;;;3.58;;
23716;SDS011;22094;52.130;5.598;2022-09-09T11:17:36;8.52;;;3.67;;
23716;SDS011;22094;52.130;5.598;2022-09-09T11:20:11;6.63;;;3.50;;
23716;SDS011;22094;52.130;5.598;2022-09-09T11:22:50;7.38;;;3.30;;
23716;SDS011;22094;52.130;5.598;2022-09-09T11:25:42;9.02;;;3.58;;
23716;SDS011;22094;52.130;5.598;2022-09-09T11:28:24;9.77;;;3.28;;
23716;SDS011;22094;52.130;5.598;2022-09-09T11:31:17;8.15;;;3.10;;
23716;SDS011;22094;52.130;5.598;2022-09-09T11:42:15;7.82;;;3.63;;
23716;SDS011;22094;52.130;5.598;2022-09-09T11:44:42;6.00;;;2.85;;
23716;SDS011;22094;52.130;5.598;2022-09-09T11:47:22;4.75;;;2.88;;
23716;SDS011;22094;52.130;5.598;2022-09-09T11:49:54;11.00;;;3.22;;
23716;SDS011;22094;52.130;5.598;2022-09-09T11:55:09;5.18;;;2.92;;
23716;SDS011;22094;52.130;5.598;2022-09-09T11:57:37;7.55;;;3.10;;
23716;SDS011;22094;52.130;5.598;2022-09-09T12:00:04;11.52;;;3.50;;
23716;SDS011;22094;52.130;5.598;2022-09-09T12:02:30;8.70;;;3.03;;
23716;SDS011;22094;52.130;5.598;2022-09-09T12:07:35;6.75;;;2.92;;
23716;SDS011;22094;52.130;5.598;2022-09-09T12:10:04;6.32;;;2.85;;
23716;SDS011;22094;52.130;5.598;2022-09-09T12:12:35;10.70;;;3.00;;
23716;SDS011;22094;52.130;5.598;2022-09-09T12:17:29;3.47;;;2.33;;
23716;SDS011;22094;52.130;5.598;2022-09-09T12:20:00;4.55;;;2.28;;
23716;SDS011;22094;52.130;5.598;2022-09-09T12:27:56;6.82;;;2.47;;
23716;SDS011;22094;52.130;5.598;2022-09-09T12:30:29;5.10;;;2.20;;
23716;SDS011;22094;52.130;5.598;2022-09-09T12:33:01;7.95;;;2.65;;
23716;SDS011;22094;52.130;5.598;2022-09-09T12:35:32;6.18;;;2.90;;
23716;SDS011;22094;52.130;5.598;2022-09-09T12:37:59;7.35;;;3.70;;
23716;SDS011;22094;52.130;5.598;2022-09-09T12:40:28;6.65;;;3.50;;
23716;SDS011;22094;52.130;5.598;2022-09-09T12:43:00;6.88;;;3.25;;
23716;SDS011;22094;52.130;5.598;2022-09-09T12:45:27;7.60;;;3.42;;
23716;SDS011;22094;52.130;5.598;2022-09-09T12:48:03;8.40;;;3.25;;
23716;SDS011;22094;52.130;5.598;2022-09-09T12:50:33;4.70;;;2.85;;
23716;SDS011;22094;52.130;5.598;2022-09-09T12:53:12;6.50;;;3.70;;
23716;SDS011;22094;52.130;5.598;2022-09-09T12:55:48;5.55;;;3.00;;
23716;SDS011;22094;52.130;5.598;2022-09-09T12:58:15;7.70;;;3.13;;
23716;SDS011;22094;52.130;5.598;2022-09-09T13:00:48;8.05;;;3.03;;
23716;SDS011;22094;52.130;5.598;2022-09-09T13:03:17;5.55;;;3.00;;
23716;SDS011;22094;52.130;5.598;2022-09-09T13:05:45;5.38;;;2.90;;
23716;SDS011;22094;52.130;5.598;2022-09-09T13:08:12;6.35;;;2.70;;
23716;SDS011;22094;52.130;5.598;2022-09-09T13:16:33;8.00;;;2.78;;
23716;SDS011;22094;52.130;5.598;2022-09-09T13:19:01;5.55;;;2.75;;
23716;SDS011;22094;52.130;5.598;2022-09-09T13:21:38;5.60;;;2.60;;
23716;SDS011;22094;52.130;5.598;2022-09-09T13:24:05;4.88;;;2.75;;
23716;SDS011;22094;52.130;5.598;2022-09-09T13:26:53;8.65;;;3.05;;
23716;SDS011;22094;52.130;5.598;2022-09-09T13:29:21;4.22;;;2.50;;
23716;SDS011;22094;52.130;5.598;2022-09-09T13:31:47;5.93;;;2.85;;
23716;SDS011;22094;52.130;5.598;2022-09-09T13:34:22;5.97;;;2.70;;
23716;SDS011;22094;52.130;5.598;2022-09-09T13:36:52;8.95;;;3.00;;
23716;SDS011;22094;52.130;5.598;2022-09-09T13:39:21;5.80;;;2.60;;
23716;SDS011;22094;52.130;5.598;2022-09-09T13:41:46;8.02;;;2.83;;
23716;SDS011;22094;52.130;5.598;2022-09-09T13:44:22;5.55;;;2.90;;
23716;SDS011;22094;52.130;5.598;2022-09-09T13:47:05;6.78;;;3.38;;
23716;SDS011;22094;52.130;5.598;2022-09-09T13:49:42;5.13;;;2.70;;
23716;SDS011;22094;52.130;5.598;2022-09-09T13:52:10;7.60;;;3.03;;
23716;SDS011;22094;52.130;5.598;2022-09-09T13:54:38;6.65;;;2.88;;
23716;SDS011;22094;52.130;5.598;2022-09-09T13:57:04;5.70;;;2.97;;
23716;SDS011;22094;52.130;5.598;2022-09-09T13:59:30;6.07;;;3.28;;
23716;SDS011;22094;52.130;5.598;2022-09-09T14:01:56;5.15;;;3.13;;
23716;SDS011;22094;52.130;5.598;2022-09-09T14:04:23;7.75;;;2.75;;
23716;SDS011;22094;52.130;5.598;2022-09-09T14:06:49;7.25;;;3.17;;
23716;SDS011;22094;52.130;5.598;2022-09-09T14:09:16;6.43;;;2.78;;
23716;SDS011;22094;52.130;5.598;2022-09-09T14:11:43;4.43;;;2.60;;
23716;SDS011;22094;52.130;5.598;2022-09-09T14:14:10;5.57;;;2.70;;
23716;SDS011;22094;52.130;5.598;2022-09-09T14:16:36;3.95;;;2.33;;
23716;SDS011;22094;52.130;5.598;2022-09-09T14:19:02;8.10;;;2.63;;
23716;SDS011;22094;52.130;5.598;2022-09-09T14:21:28;6.15;;;2.63;;
23716;SDS011;22094;52.130;5.598;2022-09-09T14:23:55;6.90;;;2.55;;
23716;SDS011;22094;52.130;5.598;2022-09-09T14:26:22;5.47;;;2.80;;
23716;SDS011;22094;52.130;5.598;2022-09-09T14:28:48;3.90;;;2.45;;
23716;SDS011;22094;52.130;5.598;2022-09-09T14:31:15;3.33;;;2.30;;
23716;SDS011;22094;52.130;5.598;2022-09-09T14:33:42;6.20;;;2.55;;
23716;SDS011;22094;52.130;5.598;2022-09-09T14:36:08;2.90;;;2.08;;
23716;SDS011;22094;52.130;5.598;2022-09-09T14:38:35;7.28;;;2.42;;
23716;SDS011;22094;52.130;5.598;2022-09-09T14:41:11;3.85;;;2.13;;
23716;SDS011;22094;52.130;5.598;2022-09-09T14:43:38;4.47;;;2.28;;
23716;SDS011;22094;52.130;5.598;2022-09-09T14:46:05;4.70;;;2.25;;
23716;SDS011;22094;52.130;5.598;2022-09-09T14:48:33;4.45;;;2.28;;
23716;SDS011;22094;52.130;5.598;2022-09-09T14:51:06;5.20;;;2.20;;
23716;SDS011;22094;52.130;5.598;2022-09-09T14:53:32;5.18;;;2.53;;
23716;SDS011;22094;52.130;5.598;2022-09-09T14:56:05;5.82;;;2.28;;
23716;SDS011;22094;52.130;5.598;2022-09-09T14:58:31;5.47;;;2.20;;
23716;SDS011;22094;52.130;5.598;2022-09-09T15:03:39;4.55;;;2.42;;
23716;SDS011;22094;52.130;5.598;2022-09-09T15:06:11;4.68;;;2.60;;
23716;SDS011;22094;52.130;5.598;2022-09-09T15:08:41;7.40;;;3.13;;
23716;SDS011;22094;52.130;5.598;2022-09-09T15:11:08;5.15;;;2.90;;
23716;SDS011;22094;52.130;5.598;2022-09-09T15:13:38;6.93;;;2.50;;
23716;SDS011;22094;52.130;5.598;2022-09-09T15:16:15;5.60;;;2.90;;
23716;SDS011;22094;52.130;5.598;2022-09-09T15:18:42;3.42;;;2.47;;
23716;SDS011;22094;52.130;5.598;2022-09-09T15:21:10;7.22;;;3.05;;
23716;SDS011;22094;52.130;5.598;2022-09-09T15:23:36;4.82;;;2.85;;
23716;SDS011;22094;52.130;5.598;2022-09-09T15:26:02;5.72;;;2.67;;
23716;SDS011;22094;52.130;5.598;2022-09-09T15:28:28;6.30;;;3.17;;
23716;SDS011;22094;52.130;5.598;2022-09-09T15:30:56;3.70;;;2.65;;
23716;SDS011;22094;52.130;5.598;2022-09-09T15:33:23;7.13;;;2.38;;
23716;SDS011;22094;52.130;5.598;2022-09-09T15:35:49;3.38;;;2.10;;
23716;SDS011;22094;52.130;5.598;2022-09-09T15:38:14;3.65;;;1.85;;
23716;SDS011;22094;52.130;5.598;2022-09-09T15:40:41;7.07;;;1.70;;
23716;SDS011;22094;52.130;5.598;2022-09-09T15:43:07;3.25;;;1.60;;
23716;SDS011;22094;52.130;5.598;2022-09-09T15:45:34;2.13;;;1.55;;
23716;SDS011;22094;52.130;5.598;2022-09-09T15:48:00;2.40;;;1.05;;
23716;SDS011;22094;52.130;5.598;2022-09-09T15:50:26;1.08;;;0.98;;
23716;SDS011;22094;52.130;5.598;2022-09-09T15:52:57;1.63;;;0.90;;
23716;SDS011;22094;52.130;5.598;2022-09-09T15:55:23;2.90;;;1.20;;
23716;SDS011;22094;52.130;5.598;2022-09-09T15:57:49;3.17;;;1.20;;
23716;SDS011;22094;52.130;5.598;2022-09-09T16:00:17;1.20;;;1.10;;
23716;SDS011;22094;52.130;5.598;2022-09-09T16:02:43;6.32;;;1.17;;
23716;SDS011;22094;52.130;5.598;2022-09-09T16:05:09;4.47;;;1.40;;
23716;SDS011;22094;52.130;5.598;2022-09-09T16:07:35;2.92;;;1.50;;
23716;SDS011;22094;52.130;5.598;2022-09-09T16:10:01;2.38;;;1.30;;
23716;SDS011;22094;52.130;5.598;2022-09-09T16:12:27;2.40;;;1.73;;
23716;SDS011;22094;52.130;5.598;2022-09-09T16:14:53;4.85;;;1.77;;
23716;SDS011;22094;52.130;5.598;2022-09-09T16:17:19;2.13;;;1.40;;
23716;SDS011;22094;52.130;5.598;2022-09-09T16:19:46;4.90;;;1.58;;
23716;SDS011;22094;52.130;5.598;2022-09-09T16:22:12;6.68;;;1.75;;
23716;SDS011;22094;52.130;5.598;2022-09-09T16:24:40;2.58;;;1.58;;
23716;SDS011;22094;52.130;5.598;2022-09-09T16:27:05;3.03;;;1.60;;
23716;SDS011;22094;52.130;5.598;2022-09-09T16:29:31;2.70;;;1.42;;
23716;SDS011;22094;52.130;5.598;2022-09-09T16:31:57;4.10;;;1.50;;
23716;SDS011;22094;52.130;5.598;2022-09-09T16:34:25;2.80;;;1.48;;
23716;SDS011;22094;52.130;5.598;2022-09-09T16:36:50;2.80;;;1.40;;
23716;SDS011;22094;52.130;5.598;2022-09-09T16:39:19;2.80;;;1.35;;
23716;SDS011;22094;52.130;5.598;2022-09-09T16:41:45;4.22;;;1.70;;
23716;SDS011;22094;52.130;5.598;2022-09-09T16:44:14;5.07;;;1.85;;
23716;SDS011;22094;52.130;5.598;2022-09-09T16:46:42;4.68;;;2.33;;
23716;SDS011;22094;52.130;5.598;2022-09-09T16:49:09;4.18;;;2.00;;
23716;SDS011;22094;52.130;5.598;2022-09-09T16:51:37;3.50;;;2.17;;